sensor_id;sensor_type;location;lat;lon;timestamp;P1;durP1;ratioP1;P2;durP2;ratioP2
55372;SDS011;70018;47.838;16.490;2023-06-05T00:03:13;2.92;;;2.30;;
55372;SDS011;70018;47.838;16.490;2023-06-05T00:05:40;2.88;;;2.25;;
55372;SDS011;70018;47.838;16.490;2023-06-05T00:08:07;4.20;;;3.08;;
55372;SDS011;70018;47.838;16.490;2023-06-05T00:10:34;4.38;;;2.80;;
55372;SDS011;70018;47.838;16.490;2023-06-05T00:13:01;4.53;;;3.63;;
55372;SDS011;70018;47.838;16.490;2023-06-05T00:15:27;3.50;;;2.92;;
55372;SDS011;70018;47.838;16.490;2023-06-05T00:17:54;3.88;;;3.00;;
55372;SDS011;70018;47.838;16.490;2023-06-05T00:20:22;3.25;;;2.63;;
55372;SDS011;70018;47.838;16.490;2023-06-05T00:22:49;3.45;;;2.38;;
55372;SDS011;70018;47.838;16.490;2023-06-05T00:25:15;4.07;;;3.08;;
55372;SDS011;70018;47.838;16.490;2023-06-05T00:27:42;5.05;;;3.05;;
55372;SDS011;70018;47.838;16.490;2023-06-05T00:30:09;5.82;;;3.08;;
55372;SDS011;70018;47.838;16.490;2023-06-05T00:32:36;4.72;;;3.13;;
55372;SDS011;70018;47.838;16.490;2023-06-05T00:35:03;3.15;;;2.58;;
55372;SDS011;70018;47.838;16.490;2023-06-05T00:37:30;3.72;;;2.80;;
55372;SDS011;70018;47.838;16.490;2023-06-05T00:39:57;4.55;;;2.92;;
55372;SDS011;70018;47.838;16.490;2023-06-05T00:42:24;4.15;;;2.20;;
55372;SDS011;70018;47.838;16.490;2023-06-05T00:44:53;4.32;;;3.05;;
55372;SDS011;70018;47.838;16.490;2023-06-05T00:47:20;4.13;;;2.67;;
55372;SDS011;70018;47.838;16.490;2023-06-05T00:49:47;5.50;;;2.60;;
55372;SDS011;70018;47.838;16.490;2023-06-05T00:52:14;3.67;;;2.67;;
55372;SDS011;70018;47.838;16.490;2023-06-05T00:54:41;3.50;;;2.55;;
55372;SDS011;70018;47.838;16.490;2023-06-05T00:57:08;5.97;;;2.08;;
55372;SDS011;70018;47.838;16.490;2023-06-05T00:59:36;3.38;;;2.92;;
55372;SDS011;70018;47.838;16.490;2023-06-05T01:02:03;3.47;;;2.38;;
55372;SDS011;70018;47.838;16.490;2023-06-05T01:04:30;4.93;;;2.50;;
55372;SDS011;70018;47.838;16.490;2023-06-05T01:06:59;3.25;;;2.08;;
55372;SDS011;70018;47.838;16.490;2023-06-05T01:09:27;3.58;;;2.33;;
55372;SDS011;70018;47.838;16.490;2023-06-05T01:12:11;2.30;;;1.85;;
55372;SDS011;70018;47.838;16.490;2023-06-05T01:14:48;3.33;;;2.50;;
55372;SDS011;70018;47.838;16.490;2023-06-05T01:17:15;3.80;;;2.65;;
55372;SDS011;70018;47.838;16.490;2023-06-05T01:19:45;3.55;;;2.28;;
55372;SDS011;70018;47.838;16.490;2023-06-05T01:22:12;3.03;;;2.35;;
55372;SDS011;70018;47.838;16.490;2023-06-05T01:24:39;4.30;;;2.13;;
55372;SDS011;70018;47.838;16.490;2023-06-05T01:32:23;6.30;;;2.55;;
55372;SDS011;70018;47.838;16.490;2023-06-05T01:34:56;5.25;;;2.92;;
55372;SDS011;70018;47.838;16.490;2023-06-05T01:37:25;4.20;;;3.10;;
55372;SDS011;70018;47.838;16.490;2023-06-05T01:39:53;6.95;;;2.28;;
55372;SDS011;70018;47.838;16.490;2023-06-05T01:42:22;6.07;;;2.72;;
55372;SDS011;70018;47.838;16.490;2023-06-05T01:44:50;3.58;;;2.60;;
55372;SDS011;70018;47.838;16.490;2023-06-05T01:47:18;1.73;;;1.52;;
55372;SDS011;70018;47.838;16.490;2023-06-05T01:49:47;3.53;;;2.90;;
55372;SDS011;70018;47.838;16.490;2023-06-05T01:52:14;3.15;;;2.28;;
55372;SDS011;70018;47.838;16.490;2023-06-05T01:54:41;5.30;;;3.08;;
55372;SDS011;70018;47.838;16.490;2023-06-05T01:57:08;3.40;;;2.95;;
55372;SDS011;70018;47.838;16.490;2023-06-05T01:59:35;4.72;;;3.10;;
55372;SDS011;70018;47.838;16.490;2023-06-05T02:02:02;4.50;;;3.05;;
55372;SDS011;70018;47.838;16.490;2023-06-05T02:04:30;2.92;;;2.55;;
55372;SDS011;70018;47.838;16.490;2023-06-05T02:06:56;3.50;;;2.80;;
55372;SDS011;70018;47.838;16.490;2023-06-05T02:09:29;4.20;;;2.90;;
55372;SDS011;70018;47.838;16.490;2023-06-05T02:11:59;7.07;;;3.28;;
55372;SDS011;70018;47.838;16.490;2023-06-05T02:14:30;5.95;;;3.65;;
55372;SDS011;70018;47.838;16.490;2023-06-05T02:16:58;4.15;;;3.17;;
55372;SDS011;70018;47.838;16.490;2023-06-05T02:19:24;3.17;;;2.88;;
55372;SDS011;70018;47.838;16.490;2023-06-05T02:21:51;4.45;;;3.17;;
55372;SDS011;70018;47.838;16.490;2023-06-05T02:24:19;4.80;;;3.15;;
55372;SDS011;70018;47.838;16.490;2023-06-05T02:26:46;4.90;;;3.10;;
55372;SDS011;70018;47.838;16.490;2023-06-05T02:29:12;5.40;;;4.20;;
55372;SDS011;70018;47.838;16.490;2023-06-05T02:31:39;5.38;;;3.90;;
55372;SDS011;70018;47.838;16.490;2023-06-05T02:34:06;6.78;;;4.82;;
55372;SDS011;70018;47.838;16.490;2023-06-05T02:36:33;5.70;;;4.15;;
55372;SDS011;70018;47.838;16.490;2023-06-05T02:39:02;6.50;;;4.05;;
55372;SDS011;70018;47.838;16.490;2023-06-05T02:41:31;7.43;;;3.95;;
55372;SDS011;70018;47.838;16.490;2023-06-05T02:43:58;6.95;;;3.83;;
55372;SDS011;70018;47.838;16.490;2023-06-05T02:46:26;6.75;;;4.57;;
55372;SDS011;70018;47.838;16.490;2023-06-05T02:48:52;4.93;;;3.47;;
55372;SDS011;70018;47.838;16.490;2023-06-05T02:51:19;4.30;;;3.58;;
55372;SDS011;70018;47.838;16.490;2023-06-05T02:53:46;5.30;;;3.72;;
55372;SDS011;70018;47.838;16.490;2023-06-05T02:56:13;5.45;;;3.20;;
55372;SDS011;70018;47.838;16.490;2023-06-05T02:58:40;5.30;;;3.40;;
55372;SDS011;70018;47.838;16.490;2023-06-05T03:01:10;4.72;;;3.33;;
55372;SDS011;70018;47.838;16.490;2023-06-05T03:03:37;3.70;;;3.08;;
55372;SDS011;70018;47.838;16.490;2023-06-05T03:06:04;5.68;;;4.13;;
55372;SDS011;70018;47.838;16.490;2023-06-05T03:08:31;6.85;;;3.60;;
55372;SDS011;70018;47.838;16.490;2023-06-05T03:11:01;5.13;;;3.80;;
55372;SDS011;70018;47.838;16.490;2023-06-05T03:13:29;4.82;;;3.40;;
55372;SDS011;70018;47.838;16.490;2023-06-05T03:15:57;5.82;;;3.70;;
55372;SDS011;70018;47.838;16.490;2023-06-05T03:18:24;4.00;;;3.17;;
55372;SDS011;70018;47.838;16.490;2023-06-05T03:20:51;4.75;;;3.72;;
55372;SDS011;70018;47.838;16.490;2023-06-05T03:23:24;4.53;;;3.78;;
55372;SDS011;70018;47.838;16.490;2023-06-05T03:25:54;5.43;;;4.00;;
55372;SDS011;70018;47.838;16.490;2023-06-05T03:28:22;5.22;;;4.00;;
55372;SDS011;70018;47.838;16.490;2023-06-05T03:30:49;4.72;;;3.28;;
55372;SDS011;70018;47.838;16.490;2023-06-05T03:33:16;4.55;;;3.58;;
55372;SDS011;70018;47.838;16.490;2023-06-05T03:35:43;5.53;;;3.65;;
55372;SDS011;70018;47.838;16.490;2023-06-05T03:38:15;5.00;;;3.33;;
55372;SDS011;70018;47.838;16.490;2023-06-05T03:40:42;6.38;;;3.40;;
55372;SDS011;70018;47.838;16.490;2023-06-05T03:43:09;4.75;;;3.60;;
55372;SDS011;70018;47.838;16.490;2023-06-05T03:45:37;4.15;;;3.42;;
55372;SDS011;70018;47.838;16.490;2023-06-05T03:48:06;5.07;;;3.58;;
55372;SDS011;70018;47.838;16.490;2023-06-05T03:50:35;4.57;;;2.75;;
55372;SDS011;70018;47.838;16.490;2023-06-05T03:53:04;4.65;;;3.10;;
55372;SDS011;70018;47.838;16.490;2023-06-05T03:55:32;6.65;;;3.50;;
55372;SDS011;70018;47.838;16.490;2023-06-05T03:58:08;4.68;;;3.25;;
55372;SDS011;70018;47.838;16.490;2023-06-05T04:00:43;4.53;;;3.22;;
55372;SDS011;70018;47.838;16.490;2023-06-05T04:03:11;3.47;;;3.03;;
55372;SDS011;70018;47.838;16.490;2023-06-05T04:05:39;4.07;;;3.10;;
55372;SDS011;70018;47.838;16.490;2023-06-05T04:08:06;3.72;;;2.75;;
55372;SDS011;70018;47.838;16.490;2023-06-05T04:10:33;9.55;;;3.03;;
55372;SDS011;70018;47.838;16.490;2023-06-05T04:13:00;4.47;;;3.08;;
55372;SDS011;70018;47.838;16.490;2023-06-05T04:15:27;2.58;;;2.03;;
55372;SDS011;70018;47.838;16.490;2023-06-05T04:17:54;3.10;;;2.42;;
55372;SDS011;70018;47.838;16.490;2023-06-05T04:20:22;3.25;;;2.35;;
55372;SDS011;70018;47.838;16.490;2023-06-05T04:22:49;3.53;;;2.35;;
55372;SDS011;70018;47.838;16.490;2023-06-05T04:25:16;2.72;;;2.40;;
55372;SDS011;70018;47.838;16.490;2023-06-05T04:27:43;3.20;;;2.78;;
55372;SDS011;70018;47.838;16.490;2023-06-05T04:30:12;4.30;;;2.40;;
55372;SDS011;70018;47.838;16.490;2023-06-05T04:32:40;4.15;;;3.40;;
55372;SDS011;70018;47.838;16.490;2023-06-05T04:35:08;7.35;;;3.03;;
55372;SDS011;70018;47.838;16.490;2023-06-05T04:37:36;4.95;;;3.53;;
55372;SDS011;70018;47.838;16.490;2023-06-05T04:40:04;6.40;;;3.92;;
55372;SDS011;70018;47.838;16.490;2023-06-05T04:42:32;4.22;;;2.88;;
55372;SDS011;70018;47.838;16.490;2023-06-05T04:45:00;4.72;;;3.42;;
55372;SDS011;70018;47.838;16.490;2023-06-05T04:47:28;7.50;;;4.15;;
55372;SDS011;70018;47.838;16.490;2023-06-05T04:50:00;5.78;;;3.97;;
55372;SDS011;70018;47.838;16.490;2023-06-05T04:52:30;4.22;;;3.20;;
55372;SDS011;70018;47.838;16.490;2023-06-05T04:55:02;6.95;;;4.18;;
55372;SDS011;70018;47.838;16.490;2023-06-05T04:57:28;6.15;;;4.35;;
55372;SDS011;70018;47.838;16.490;2023-06-05T04:59:56;5.93;;;3.60;;
55372;SDS011;70018;47.838;16.490;2023-06-05T05:02:25;3.50;;;2.90;;
55372;SDS011;70018;47.838;16.490;2023-06-05T05:04:52;5.85;;;3.70;;
55372;SDS011;70018;47.838;16.490;2023-06-05T05:12:36;3.08;;;2.67;;
55372;SDS011;70018;47.838;16.490;2023-06-05T05:20:40;8.30;;;3.67;;
55372;SDS011;70018;47.838;16.490;2023-06-05T05:23:07;5.70;;;3.28;;
55372;SDS011;70018;47.838;16.490;2023-06-05T05:25:35;4.13;;;3.53;;
55372;SDS011;70018;47.838;16.490;2023-06-05T05:28:03;5.47;;;2.80;;
55372;SDS011;70018;47.838;16.490;2023-06-05T05:30:30;7.50;;;3.38;;
55372;SDS011;70018;47.838;16.490;2023-06-05T05:32:59;4.00;;;2.80;;
55372;SDS011;70018;47.838;16.490;2023-06-05T05:35:25;5.72;;;2.78;;
55372;SDS011;70018;47.838;16.490;2023-06-05T05:37:52;3.42;;;2.63;;
55372;SDS011;70018;47.838;16.490;2023-06-05T05:40:19;3.70;;;2.40;;
55372;SDS011;70018;47.838;16.490;2023-06-05T05:42:45;3.47;;;2.47;;
55372;SDS011;70018;47.838;16.490;2023-06-05T05:45:12;5.25;;;2.95;;
55372;SDS011;70018;47.838;16.490;2023-06-05T05:47:39;4.22;;;3.00;;
55372;SDS011;70018;47.838;16.490;2023-06-05T05:50:06;4.53;;;2.67;;
55372;SDS011;70018;47.838;16.490;2023-06-05T05:52:33;4.63;;;3.28;;
55372;SDS011;70018;47.838;16.490;2023-06-05T05:55:00;4.80;;;3.35;;
55372;SDS011;70018;47.838;16.490;2023-06-05T05:57:29;4.32;;;2.80;;
55372;SDS011;70018;47.838;16.490;2023-06-05T05:59:56;4.30;;;2.92;;
55372;SDS011;70018;47.838;16.490;2023-06-05T06:02:23;3.38;;;2.38;;
55372;SDS011;70018;47.838;16.490;2023-06-05T06:04:50;3.95;;;2.88;;
55372;SDS011;70018;47.838;16.490;2023-06-05T06:07:17;3.97;;;2.80;;
55372;SDS011;70018;47.838;16.490;2023-06-05T06:09:43;5.95;;;2.92;;
55372;SDS011;70018;47.838;16.490;2023-06-05T06:12:11;3.85;;;2.63;;
55372;SDS011;70018;47.838;16.490;2023-06-05T06:14:38;3.50;;;2.83;;
55372;SDS011;70018;47.838;16.490;2023-06-05T06:17:04;4.13;;;3.00;;
55372;SDS011;70018;47.838;16.490;2023-06-05T06:19:36;4.03;;;3.10;;
55372;SDS011;70018;47.838;16.490;2023-06-05T06:22:03;4.20;;;2.88;;
55372;SDS011;70018;47.838;16.490;2023-06-05T06:24:29;4.40;;;2.67;;
55372;SDS011;70018;47.838;16.490;2023-06-05T06:26:56;3.35;;;2.70;;
55372;SDS011;70018;47.838;16.490;2023-06-05T06:29:24;4.18;;;2.92;;
55372;SDS011;70018;47.838;16.490;2023-06-05T06:31:51;4.47;;;2.65;;
55372;SDS011;70018;47.838;16.490;2023-06-05T06:34:18;3.30;;;2.58;;
55372;SDS011;70018;47.838;16.490;2023-06-05T06:36:45;4.13;;;2.75;;
55372;SDS011;70018;47.838;16.490;2023-06-05T06:39:12;6.22;;;2.80;;
55372;SDS011;70018;47.838;16.490;2023-06-05T06:41:39;3.97;;;3.03;;
55372;SDS011;70018;47.838;16.490;2023-06-05T06:44:06;3.10;;;2.60;;
55372;SDS011;70018;47.838;16.490;2023-06-05T06:46:32;5.35;;;3.63;;
55372;SDS011;70018;47.838;16.490;2023-06-05T06:48:59;3.65;;;2.90;;
55372;SDS011;70018;47.838;16.490;2023-06-05T06:51:26;3.40;;;2.40;;
55372;SDS011;70018;47.838;16.490;2023-06-05T06:53:53;4.68;;;2.90;;
55372;SDS011;70018;47.838;16.490;2023-06-05T06:56:19;3.53;;;2.60;;
55372;SDS011;70018;47.838;16.490;2023-06-05T06:58:46;3.60;;;2.80;;
55372;SDS011;70018;47.838;16.490;2023-06-05T07:01:13;3.22;;;2.13;;
55372;SDS011;70018;47.838;16.490;2023-06-05T07:03:41;5.72;;;2.90;;
55372;SDS011;70018;47.838;16.490;2023-06-05T07:06:11;4.20;;;2.72;;
55372;SDS011;70018;47.838;16.490;2023-06-05T07:08:38;3.85;;;2.22;;
55372;SDS011;70018;47.838;16.490;2023-06-05T07:11:04;4.75;;;3.10;;
55372;SDS011;70018;47.838;16.490;2023-06-05T07:13:31;3.58;;;2.92;;
55372;SDS011;70018;47.838;16.490;2023-06-05T07:15:58;4.65;;;2.88;;
55372;SDS011;70018;47.838;16.490;2023-06-05T07:18:25;4.22;;;2.95;;
55372;SDS011;70018;47.838;16.490;2023-06-05T07:20:52;3.17;;;2.47;;
55372;SDS011;70018;47.838;16.490;2023-06-05T07:23:19;4.60;;;2.65;;
55372;SDS011;70018;47.838;16.490;2023-06-05T07:25:47;4.35;;;2.60;;
55372;SDS011;70018;47.838;16.490;2023-06-05T07:28:13;5.25;;;3.13;;
55372;SDS011;70018;47.838;16.490;2023-06-05T07:30:42;3.20;;;2.53;;
55372;SDS011;70018;47.838;16.490;2023-06-05T07:33:11;3.08;;;2.15;;
55372;SDS011;70018;47.838;16.490;2023-06-05T07:35:55;5.72;;;2.78;;
55372;SDS011;70018;47.838;16.490;2023-06-05T07:38:21;3.33;;;2.50;;
55372;SDS011;70018;47.838;16.490;2023-06-05T07:40:48;5.85;;;2.30;;
55372;SDS011;70018;47.838;16.490;2023-06-05T07:43:15;3.40;;;2.38;;
55372;SDS011;70018;47.838;16.490;2023-06-05T07:45:44;4.22;;;3.00;;
55372;SDS011;70018;47.838;16.490;2023-06-05T07:48:10;5.07;;;2.95;;
55372;SDS011;70018;47.838;16.490;2023-06-05T07:50:37;3.47;;;2.33;;
55372;SDS011;70018;47.838;16.490;2023-06-05T07:53:04;4.88;;;2.95;;
55372;SDS011;70018;47.838;16.490;2023-06-05T07:55:30;3.08;;;2.30;;
55372;SDS011;70018;47.838;16.490;2023-06-05T07:57:57;6.05;;;3.30;;
55372;SDS011;70018;47.838;16.490;2023-06-05T08:00:26;3.30;;;2.17;;
55372;SDS011;70018;47.838;16.490;2023-06-05T08:02:53;5.50;;;2.50;;
55372;SDS011;70018;47.838;16.490;2023-06-05T08:05:20;2.30;;;2.10;;
55372;SDS011;70018;47.838;16.490;2023-06-05T08:07:46;5.60;;;2.20;;
55372;SDS011;70018;47.838;16.490;2023-06-05T08:10:13;3.67;;;2.67;;
55372;SDS011;70018;47.838;16.490;2023-06-05T08:12:40;3.17;;;2.20;;
55372;SDS011;70018;47.838;16.490;2023-06-05T08:15:07;4.30;;;2.13;;
55372;SDS011;70018;47.838;16.490;2023-06-05T08:17:34;3.65;;;2.10;;
55372;SDS011;70018;47.838;16.490;2023-06-05T08:20:01;3.33;;;2.60;;
55372;SDS011;70018;47.838;16.490;2023-06-05T08:22:31;4.07;;;2.17;;
55372;SDS011;70018;47.838;16.490;2023-06-05T08:24:57;3.35;;;1.92;;
55372;SDS011;70018;47.838;16.490;2023-06-05T08:27:26;2.50;;;1.92;;
55372;SDS011;70018;47.838;16.490;2023-06-05T08:29:53;4.95;;;2.30;;
55372;SDS011;70018;47.838;16.490;2023-06-05T08:32:19;6.22;;;2.63;;
55372;SDS011;70018;47.838;16.490;2023-06-05T08:34:47;3.47;;;2.03;;
55372;SDS011;70018;47.838;16.490;2023-06-05T08:37:14;3.63;;;2.08;;
55372;SDS011;70018;47.838;16.490;2023-06-05T08:39:41;2.90;;;2.10;;
55372;SDS011;70018;47.838;16.490;2023-06-05T08:44:49;3.55;;;2.10;;
55372;SDS011;70018;47.838;16.490;2023-06-05T08:47:28;3.47;;;2.20;;
55372;SDS011;70018;47.838;16.490;2023-06-05T08:49:58;2.83;;;2.10;;
55372;SDS011;70018;47.838;16.490;2023-06-05T08:52:29;3.13;;;1.98;;
55372;SDS011;70018;47.838;16.490;2023-06-05T08:55:03;1.92;;;1.58;;
55372;SDS011;70018;47.838;16.490;2023-06-05T08:57:34;3.45;;;2.35;;
55372;SDS011;70018;47.838;16.490;2023-06-05T09:00:05;3.67;;;2.30;;
55372;SDS011;70018;47.838;16.490;2023-06-05T09:02:37;2.97;;;1.80;;
55372;SDS011;70018;47.838;16.490;2023-06-05T09:05:05;2.80;;;1.90;;
55372;SDS011;70018;47.838;16.490;2023-06-05T09:07:32;5.38;;;2.50;;
55372;SDS011;70018;47.838;16.490;2023-06-05T09:09:59;4.40;;;2.10;;
55372;SDS011;70018;47.838;16.490;2023-06-05T09:12:26;2.95;;;2.22;;
55372;SDS011;70018;47.838;16.490;2023-06-05T09:14:52;3.28;;;2.50;;
55372;SDS011;70018;47.838;16.490;2023-06-05T09:17:22;2.80;;;2.10;;
55372;SDS011;70018;47.838;16.490;2023-06-05T09:19:49;4.88;;;2.42;;
55372;SDS011;70018;47.838;16.490;2023-06-05T09:22:17;4.43;;;2.38;;
55372;SDS011;70018;47.838;16.490;2023-06-05T09:24:58;4.32;;;2.20;;
55372;SDS011;70018;47.838;16.490;2023-06-05T09:27:27;4.65;;;2.63;;
55372;SDS011;70018;47.838;16.490;2023-06-05T09:30:01;3.35;;;2.20;;
55372;SDS011;70018;47.838;16.490;2023-06-05T09:32:30;3.63;;;2.40;;
55372;SDS011;70018;47.838;16.490;2023-06-05T09:34:57;4.20;;;2.65;;
55372;SDS011;70018;47.838;16.490;2023-06-05T09:37:36;2.65;;;2.33;;
55372;SDS011;70018;47.838;16.490;2023-06-05T09:40:03;3.50;;;2.35;;
55372;SDS011;70018;47.838;16.490;2023-06-05T09:42:32;3.50;;;2.90;;
55372;SDS011;70018;47.838;16.490;2023-06-05T09:45:00;3.90;;;2.35;;
55372;SDS011;70018;47.838;16.490;2023-06-05T09:47:28;3.30;;;2.20;;
55372;SDS011;70018;47.838;16.490;2023-06-05T09:50:20;3.80;;;2.78;;
55372;SDS011;70018;47.838;16.490;2023-06-05T09:52:49;3.15;;;2.50;;
55372;SDS011;70018;47.838;16.490;2023-06-05T09:55:16;4.32;;;2.42;;
55372;SDS011;70018;47.838;16.490;2023-06-05T09:57:44;5.40;;;2.38;;
55372;SDS011;70018;47.838;16.490;2023-06-05T10:00:12;4.72;;;2.95;;
55372;SDS011;70018;47.838;16.490;2023-06-05T10:02:41;2.85;;;2.58;;
55372;SDS011;70018;47.838;16.490;2023-06-05T10:05:09;7.05;;;2.40;;
55372;SDS011;70018;47.838;16.490;2023-06-05T10:07:37;4.45;;;3.10;;
55372;SDS011;70018;47.838;16.490;2023-06-05T10:10:10;4.80;;;2.70;;
55372;SDS011;70018;47.838;16.490;2023-06-05T10:12:37;2.40;;;2.20;;
55372;SDS011;70018;47.838;16.490;2023-06-05T10:15:05;4.47;;;2.90;;
55372;SDS011;70018;47.838;16.490;2023-06-05T10:17:33;6.82;;;2.78;;
55372;SDS011;70018;47.838;16.490;2023-06-05T10:20:03;3.05;;;2.28;;
55372;SDS011;70018;47.838;16.490;2023-06-05T10:22:32;4.03;;;2.45;;
55372;SDS011;70018;47.838;16.490;2023-06-05T10:25:03;3.72;;;3.28;;
55372;SDS011;70018;47.838;16.490;2023-06-05T10:27:37;5.43;;;3.08;;
55372;SDS011;70018;47.838;16.490;2023-06-05T10:30:13;6.13;;;2.90;;
55372;SDS011;70018;47.838;16.490;2023-06-05T10:38:20;4.18;;;2.65;;
55372;SDS011;70018;47.838;16.490;2023-06-05T10:40:58;4.25;;;2.47;;
55372;SDS011;70018;47.838;16.490;2023-06-05T10:43:26;3.75;;;3.03;;
55372;SDS011;70018;47.838;16.490;2023-06-05T10:46:01;3.85;;;2.58;;
55372;SDS011;70018;47.838;16.490;2023-06-05T10:54:10;4.28;;;2.47;;
55372;SDS011;70018;47.838;16.490;2023-06-05T10:57:02;3.17;;;1.95;;
55372;SDS011;70018;47.838;16.490;2023-06-05T10:59:31;4.68;;;2.70;;
55372;SDS011;70018;47.838;16.490;2023-06-05T11:10:07;3.53;;;2.28;;
55372;SDS011;70018;47.838;16.490;2023-06-05T11:17:49;4.40;;;2.38;;
55372;SDS011;70018;47.838;16.490;2023-06-05T11:30:44;4.07;;;3.03;;
55372;SDS011;70018;47.838;16.490;2023-06-05T11:33:16;8.38;;;3.00;;
55372;SDS011;70018;47.838;16.490;2023-06-05T11:35:45;4.18;;;2.45;;
55372;SDS011;70018;47.838;16.490;2023-06-05T11:38:14;2.38;;;2.13;;
55372;SDS011;70018;47.838;16.490;2023-06-05T11:43:14;5.60;;;2.85;;
55372;SDS011;70018;47.838;16.490;2023-06-05T11:45:42;2.90;;;2.28;;
55372;SDS011;70018;47.838;16.490;2023-06-05T11:48:16;3.40;;;1.85;;
55372;SDS011;70018;47.838;16.490;2023-06-05T11:50:53;2.42;;;2.08;;
55372;SDS011;70018;47.838;16.490;2023-06-05T11:53:23;3.80;;;2.97;;
55372;SDS011;70018;47.838;16.490;2023-06-05T11:55:51;3.08;;;2.45;;
55372;SDS011;70018;47.838;16.490;2023-06-05T11:58:22;4.93;;;2.80;;
55372;SDS011;70018;47.838;16.490;2023-06-05T12:03:49;3.20;;;1.90;;
55372;SDS011;70018;47.838;16.490;2023-06-05T12:06:28;2.10;;;1.63;;
55372;SDS011;70018;47.838;16.490;2023-06-05T12:09:11;2.85;;;2.00;;
55372;SDS011;70018;47.838;16.490;2023-06-05T12:11:40;3.42;;;2.58;;
55372;SDS011;70018;47.838;16.490;2023-06-05T12:14:09;4.40;;;2.22;;
55372;SDS011;70018;47.838;16.490;2023-06-05T12:16:38;3.50;;;2.30;;
55372;SDS011;70018;47.838;16.490;2023-06-05T12:19:14;2.83;;;2.33;;
55372;SDS011;70018;47.838;16.490;2023-06-05T12:21:43;2.65;;;2.13;;
55372;SDS011;70018;47.838;16.490;2023-06-05T12:24:11;3.72;;;2.30;;
55372;SDS011;70018;47.838;16.490;2023-06-05T12:26:54;2.78;;;2.13;;
55372;SDS011;70018;47.838;16.490;2023-06-05T12:29:34;3.03;;;2.00;;
55372;SDS011;70018;47.838;16.490;2023-06-05T12:32:20;2.17;;;1.63;;
55372;SDS011;70018;47.838;16.490;2023-06-05T12:34:48;3.05;;;2.20;;
55372;SDS011;70018;47.838;16.490;2023-06-05T12:37:31;2.47;;;2.03;;
55372;SDS011;70018;47.838;16.490;2023-06-05T12:40:01;3.45;;;1.80;;
55372;SDS011;70018;47.838;16.490;2023-06-05T12:42:33;3.40;;;2.40;;
55372;SDS011;70018;47.838;16.490;2023-06-05T12:45:04;2.50;;;1.90;;
55372;SDS011;70018;47.838;16.490;2023-06-05T12:47:33;2.63;;;1.88;;
55372;SDS011;70018;47.838;16.490;2023-06-05T12:50:04;3.03;;;1.75;;
55372;SDS011;70018;47.838;16.490;2023-06-05T12:52:39;2.85;;;1.92;;
55372;SDS011;70018;47.838;16.490;2023-06-05T12:55:06;4.47;;;1.80;;
55372;SDS011;70018;47.838;16.490;2023-06-05T12:57:34;3.55;;;1.83;;
55372;SDS011;70018;47.838;16.490;2023-06-05T13:00:05;2.40;;;1.80;;
55372;SDS011;70018;47.838;16.490;2023-06-05T13:02:43;3.58;;;1.83;;
55372;SDS011;70018;47.838;16.490;2023-06-05T13:05:16;4.72;;;2.30;;
55372;SDS011;70018;47.838;16.490;2023-06-05T13:07:43;3.42;;;2.30;;
55372;SDS011;70018;47.838;16.490;2023-06-05T13:10:11;4.70;;;2.38;;
55372;SDS011;70018;47.838;16.490;2023-06-05T13:12:38;6.88;;;2.10;;
55372;SDS011;70018;47.838;16.490;2023-06-05T13:15:04;3.72;;;1.95;;
55372;SDS011;70018;47.838;16.490;2023-06-05T13:17:33;2.30;;;1.92;;
55372;SDS011;70018;47.838;16.490;2023-06-05T13:20:02;3.65;;;2.28;;
55372;SDS011;70018;47.838;16.490;2023-06-05T13:22:37;4.88;;;2.40;;
55372;SDS011;70018;47.838;16.490;2023-06-05T13:25:05;3.38;;;2.50;;
55372;SDS011;70018;47.838;16.490;2023-06-05T13:27:33;3.38;;;2.30;;
55372;SDS011;70018;47.838;16.490;2023-06-05T13:30:00;2.28;;;1.73;;
55372;SDS011;70018;47.838;16.490;2023-06-05T13:32:27;3.40;;;2.28;;
55372;SDS011;70018;47.838;16.490;2023-06-05T13:34:53;3.50;;;2.10;;
55372;SDS011;70018;47.838;16.490;2023-06-05T13:37:20;2.30;;;1.80;;
55372;SDS011;70018;47.838;16.490;2023-06-05T13:39:49;2.00;;;1.50;;
55372;SDS011;70018;47.838;16.490;2023-06-05T13:42:16;3.45;;;2.00;;
55372;SDS011;70018;47.838;16.490;2023-06-05T13:44:44;2.78;;;1.67;;
55372;SDS011;70018;47.838;16.490;2023-06-05T13:47:11;2.38;;;1.90;;
55372;SDS011;70018;47.838;16.490;2023-06-05T13:49:37;4.40;;;1.90;;
55372;SDS011;70018;47.838;16.490;2023-06-05T13:52:04;3.60;;;2.30;;
55372;SDS011;70018;47.838;16.490;2023-06-05T13:54:32;2.60;;;1.80;;
55372;SDS011;70018;47.838;16.490;2023-06-05T13:56:58;4.03;;;2.10;;
55372;SDS011;70018;47.838;16.490;2023-06-05T13:59:26;1.83;;;1.55;;
55372;SDS011;70018;47.838;16.490;2023-06-05T14:01:52;4.07;;;1.70;;
55372;SDS011;70018;47.838;16.490;2023-06-05T14:04:19;3.00;;;2.10;;
55372;SDS011;70018;47.838;16.490;2023-06-05T14:06:47;3.15;;;1.83;;
55372;SDS011;70018;47.838;16.490;2023-06-05T14:09:13;2.33;;;1.83;;
55372;SDS011;70018;47.838;16.490;2023-06-05T14:11:40;2.33;;;1.90;;
55372;SDS011;70018;47.838;16.490;2023-06-05T14:14:11;2.45;;;2.00;;
55372;SDS011;70018;47.838;16.490;2023-06-05T14:16:37;4.20;;;1.95;;
55372;SDS011;70018;47.838;16.490;2023-06-05T14:19:04;3.47;;;1.42;;
55372;SDS011;70018;47.838;16.490;2023-06-05T14:21:31;2.80;;;1.90;;
55372;SDS011;70018;47.838;16.490;2023-06-05T14:23:58;2.22;;;1.67;;
55372;SDS011;70018;47.838;16.490;2023-06-05T14:26:24;2.42;;;1.80;;
55372;SDS011;70018;47.838;16.490;2023-06-05T14:28:52;2.60;;;1.75;;
55372;SDS011;70018;47.838;16.490;2023-06-05T14:31:18;1.92;;;1.60;;
55372;SDS011;70018;47.838;16.490;2023-06-05T14:33:46;2.95;;;1.60;;
55372;SDS011;70018;47.838;16.490;2023-06-05T14:36:12;2.60;;;2.00;;
55372;SDS011;70018;47.838;16.490;2023-06-05T14:38:41;1.83;;;1.65;;
55372;SDS011;70018;47.838;16.490;2023-06-05T14:41:08;2.75;;;1.90;;
55372;SDS011;70018;47.838;16.490;2023-06-05T14:43:35;2.53;;;1.70;;
55372;SDS011;70018;47.838;16.490;2023-06-05T14:46:01;2.78;;;1.50;;
55372;SDS011;70018;47.838;16.490;2023-06-05T14:48:29;1.85;;;1.40;;
55372;SDS011;70018;47.838;16.490;2023-06-05T14:50:56;2.28;;;1.60;;
55372;SDS011;70018;47.838;16.490;2023-06-05T14:53:23;1.90;;;1.55;;
55372;SDS011;70018;47.838;16.490;2023-06-05T14:55:50;2.88;;;1.67;;
55372;SDS011;70018;47.838;16.490;2023-06-05T14:58:17;2.90;;;1.90;;
55372;SDS011;70018;47.838;16.490;2023-06-05T15:00:45;3.67;;;1.70;;
55372;SDS011;70018;47.838;16.490;2023-06-05T15:03:12;2.20;;;1.80;;
55372;SDS011;70018;47.838;16.490;2023-06-05T15:05:39;2.58;;;1.67;;
55372;SDS011;70018;47.838;16.490;2023-06-05T15:08:05;3.42;;;1.83;;
55372;SDS011;70018;47.838;16.490;2023-06-05T15:10:32;3.78;;;1.50;;
55372;SDS011;70018;47.838;16.490;2023-06-05T15:12:59;2.83;;;1.92;;
55372;SDS011;70018;47.838;16.490;2023-06-05T15:15:26;2.42;;;1.75;;
55372;SDS011;70018;47.838;16.490;2023-06-05T15:17:54;2.60;;;1.70;;
55372;SDS011;70018;47.838;16.490;2023-06-05T15:20:20;1.70;;;1.42;;
55372;SDS011;70018;47.838;16.490;2023-06-05T15:22:51;2.38;;;1.58;;
55372;SDS011;70018;47.838;16.490;2023-06-05T15:25:39;1.77;;;1.42;;
55372;SDS011;70018;47.838;16.490;2023-06-05T15:28:06;1.95;;;1.60;;
55372;SDS011;70018;47.838;16.490;2023-06-05T15:30:33;1.80;;;1.60;;
55372;SDS011;70018;47.838;16.490;2023-06-05T15:33:00;3.75;;;1.38;;
55372;SDS011;70018;47.838;16.490;2023-06-05T15:35:27;1.80;;;1.38;;
55372;SDS011;70018;47.838;16.490;2023-06-05T15:37:53;1.40;;;1.30;;
55372;SDS011;70018;47.838;16.490;2023-06-05T15:40:20;1.65;;;1.30;;
55372;SDS011;70018;47.838;16.490;2023-06-05T15:42:49;2.17;;;1.50;;